Time;durP1;ratioP1;P1;durP2;ratioP2;P2;SDS_P1;SDS_P2;PMS_P1;PMS_P2;Temp;Humidity;BMP_temperature;BMP_pressure;BME280_temperature;BME280_humidity;BME280_pressure;Samples;Min_cycle;Max_cycle;Signal;HPM_P1;HPM_P2
2022/07/05 00:29:25;;;;;;;4.28;2.30;;;;;;;18.36;74.01;97101.78;5513641;23;20461;-76
2022/07/05 03:59:45;;;;;;;3.03;2.72;;;;;;;18.15;74.25;97023.50;4926083;29;20210;-77
2022/07/05 04:27:24;;;;;;;3.58;3.00;;;;;;;19.94;69.13;97059.16;5030477;23;20142;-69
2022/07/05 05:47:23;;;;;;;13.63;5.30;;;;;;;23.08;53.52;96972.41;4943546;29;20063;-69
2022/07/05 05:49:50;;;;;;;6.63;4.65;;;;;;;23.92;53.04;97062.06;4912971;29;20058;-68
2022/07/05 05:52:17;;;;;;;9.18;4.80;;;;;;;24.23;52.81;97065.03;4947573;29;20063;-75
2022/07/05 05:54:43;;;;;;;11.52;4.88;;;;;;;23.23;52.48;96879.44;4947315;28;20098;-69
2022/07/05 05:57:10;;;;;;;7.30;4.53;;;;;;;24.53;52.85;97056.59;4950835;29;20055;-69
2022/07/05 05:59:37;;;;;;;8.98;5.45;;;;;;;24.08;53.93;96973.38;4949781;29;20070;-69
2022/07/05 06:02:04;;;;;;;6.97;4.78;;;;;;;24.00;53.14;96967.19;4949225;29;20078;-74
2022/07/05 06:04:31;;;;;;;6.32;4.50;;;;;;;23.24;53.47;96816.00;4939640;28;20055;-70
2022/07/05 06:06:58;;;;;;;5.72;5.15;;;;;;;23.79;52.09;96917.00;4942310;29;20110;-70
2022/07/05 06:09:24;;;;;;;6.05;5.38;;;;;;;24.83;52.68;97024.69;4938404;29;20059;-74
2022/07/05 06:11:51;;;;;;;7.10;4.22;;;;;;;25.26;50.93;97041.56;4946012;29;20057;-75
2022/07/05 06:14:18;;;;;;;5.75;5.07;;;;;;;24.76;49.95;96956.16;4931481;29;20228;-71
2022/07/05 06:16:46;;;;;;;4.45;4.05;;;;;;;25.67;48.09;97042.34;4933270;29;20084;-70
2022/07/05 06:19:31;;;;;;;4.10;3.70;;;;;;;25.76;46.02;97046.00;4940588;29;20060;-79
2022/07/05 07:45:36;;;;;;;5.03;4.47;;;;;;;30.22;37.04;96997.09;4868899;29;21003;-73
2022/07/05 07:48:06;;;;;;;4.28;3.95;;;;;;;30.37;36.66;96977.75;4891584;29;20055;-77
2022/07/05 07:51:31;;;;;;;4.53;4.10;;;;;;;30.47;36.70;97004.91;4917151;29;20055;-71
2022/07/05 08:11:55;;;;;;;7.93;4.15;;;;;;;30.53;37.94;96996.34;4836788;29;20592;-71
2022/07/05 08:14:49;;;;;;;5.53;4.03;;;;;;;31.01;36.13;96996.59;4843813;29;20056;-73
2022/07/05 08:29:20;;;;;;;5.65;5.15;;;;;;;31.69;36.60;96989.56;4928857;29;20059;-72
2022/07/05 08:32:24;;;;;;;5.40;4.90;;;;;;;31.90;34.66;96993.84;4942205;29;20063;-76
2022/07/05 08:36:00;;;;;;;4.93;4.60;;;;;;;32.17;34.74;96998.13;4886537;29;20060;-67
2022/07/05 08:39:08;;;;;;;8.15;4.80;;;;;;;31.34;36.89;96996.88;4876957;29;20226;-75
2022/07/05 09:24:30;;;;;;;;;;;;;;;;;;;;;
2022/07/05 09:27:08;;;;;;;7.40;5.55;;;;;;;34.17;32.65;96968.16;4942657;29;20059;-68
2022/07/05 09:30:01;;;;;;;6.95;4.72;;;;;;;34.14;33.09;96957.72;4930306;29;20063;-78
2022/07/05 09:32:35;;;;;;;10.25;6.57;;;;;;;34.15;33.54;96965.03;4938976;29;20059;-67
2022/07/05 09:35:20;;;;;;;10.75;5.75;;;;;;;33.96;33.78;96923.81;4941791;29;20055;-80
2022/07/05 09:37:49;;;;;;;6.30;5.75;;;;;;;33.54;33.64;96888.41;4947528;29;20138;-68
2022/07/05 09:40:17;;;;;;;10.43;7.78;;;;;;;34.02;34.18;96944.72;4946264;29;20063;-79
2022/07/05 09:42:50;;;;;;;7.20;6.45;;;;;;;33.12;33.55;96943.31;4932594;29;20062;-67
2022/07/05 09:45:23;;;;;;;9.55;6.57;;;;;;;32.60;35.98;96941.44;4943468;29;20142;-72
2022/07/05 09:48:10;;;;;;;7.68;5.90;;;;;;;33.21;35.22;96940.16;4939477;29;20340;-67
2022/07/05 09:51:07;;;;;;;8.95;6.30;;;;;;;33.57;34.85;96933.34;4934009;29;20568;-68
2022/07/05 09:53:56;;;;;;;8.15;5.53;;;;;;;33.67;33.67;96931.72;4934350;29;20134;-67
2022/07/05 09:56:29;;;;;;;6.20;5.60;;;;;;;33.59;33.47;96892.59;4939773;29;20109;-67
2022/07/05 09:59:12;;;;;;;7.22;5.70;;;;;;;34.31;33.55;96933.31;4948074;29;20064;-79
2022/07/05 10:01:40;;;;;;;6.95;6.35;;;;;;;34.50;32.74;96927.72;4932926;29;20444;-79
2022/07/05 10:04:08;;;;;;;6.93;6.32;;;;;;;34.50;32.62;96933.47;4945764;29;20118;-68
2022/07/05 10:06:36;;;;;;;6.72;6.13;;;;;;;34.34;33.27;96863.19;4932418;29;20350;-68
2022/07/05 10:09:04;;;;;;;6.55;5.88;;;;;;;34.75;32.41;96915.78;4944042;29;20107;-79
2022/07/05 10:11:34;;;;;;;13.50;5.30;;;;;;;34.81;32.56;96933.78;4937005;29;20059;-66
2022/07/05 10:14:06;;;;;;;7.03;6.43;;;;;;;34.57;32.72;96886.88;4937369;29;20059;-65
2022/07/05 10:16:33;;;;;;;7.03;5.47;;;;;;;34.65;32.54;96919.53;4941670;29;20059;-77
2022/07/05 10:18:59;;;;;;;6.38;5.78;;;;;;;34.60;32.84;96903.06;4933335;29;20064;-77
2022/07/05 10:21:27;;;;;;;8.98;5.18;;;;;;;35.00;32.00;96928.16;4945313;29;20073;-78
2022/07/05 10:23:55;;;;;;;6.75;5.10;;;;;;;35.28;31.55;96917.19;4929820;29;20435;-67
2022/07/05 10:26:24;;;;;;;6.57;6.00;;;;;;;35.07;31.47;96918.94;4947043;29;20059;-65
2022/07/05 10:28:53;;;;;;;11.07;6.32;;;;;;;35.11;32.35;96919.41;4942465;29;20511;-77
2022/07/05 10:31:29;;;;;;;10.85;6.30;;;;;;;34.91;31.87;96916.97;4936710;29;20086;-65
2022/07/05 10:34:07;;;;;;;5.63;5.13;;;;;;;34.91;32.37;96916.97;4937642;29;20065;-66
2022/07/05 10:36:53;;;;;;;6.85;5.32;;;;;;;35.47;32.01;96906.53;4931138;29;20118;-63
2022/07/05 10:39:23;;;;;;;6.68;6.07;;;;;;;35.62;31.57;96908.97;4944257;29;20063;-73
2022/07/05 10:41:51;;;;;;;6.93;6.22;;;;;;;35.30;32.22;96914.50;4933670;29;20153;-77
2022/07/05 10:44:37;;;;;;;8.18;6.68;;;;;;;35.88;31.10;96901.34;4941619;29;20070;-77
2022/07/05 10:47:11;;;;;;;6.95;6.25;;;;;;;36.05;31.18;96904.78;4934073;29;20064;-65
2022/07/05 10:49:39;;;;;;;7.78;6.35;;;;;;;36.16;31.08;96904.66;4942762;29;20092;-63
2022/07/05 10:52:23;;;;;;;7.13;6.43;;;;;;;36.24;31.04;96899.81;4930663;29;20179;-75
2022/07/05 10:55:16;;;;;;;7.18;6.28;;;;;;;35.79;31.76;96898.78;4932947;29;20106;-64
2022/07/05 10:57:43;;;;;;;9.10;7.53;;;;;;;35.84;31.87;96895.09;4938239;29;20114;-75
2022/07/05 11:00:11;;;;;;;6.93;5.75;;;;;;;35.95;31.69;96899.94;4928272;29;20058;-65
2022/07/05 11:02:38;;;;;;;6.32;5.70;;;;;;;35.20;31.75;96757.75;4945344;29;20531;-64
2022/07/05 11:05:06;;;;;;;7.78;7.10;;;;;;;36.13;31.04;96882.66;4930918;29;20064;-76
2022/07/05 11:07:57;;;;;;;8.32;5.55;;;;;;;35.94;31.47;96881.88;4944109;29;20051;-72
2022/07/05 11:10:24;;;;;;;7.18;6.57;;;;;;;35.41;31.37;96838.75;4940026;29;20063;-69
2022/07/05 11:12:51;;;;;;;12.32;6.45;;;;;;;35.86;31.47;96880.91;4937319;29;20066;-62
2022/07/05 11:15:18;;;;;;;7.85;6.10;;;;;;;35.31;31.26;96722.25;4942740;29;20816;-75
2022/07/05 11:17:44;;;;;;;6.57;6.07;;;;;;;36.39;30.80;96865.50;4941424;29;20055;-63
2022/07/05 11:20:28;;;;;;;8.60;6.35;;;;;;;36.26;31.80;96838.66;4928793;29;20067;-75
2022/07/05 11:23:10;;;;;;;6.50;6.00;;;;;;;36.41;30.96;96877.28;4930815;29;20063;-68
2022/07/05 11:25:42;;;;;;;7.03;5.88;;;;;;;36.44;31.07;96866.72;4942797;29;20442;-65
2022/07/05 11:28:16;;;;;;;5.50;5.10;;;;;;;35.91;30.71;96822.41;4937297;29;20122;-65
2022/07/05 11:30:52;;;;;;;9.40;6.13;;;;;;;36.11;30.66;96804.53;4933398;29;20066;-64
2022/07/05 11:33:26;;;;;;;7.07;6.13;;;;;;;36.14;30.34;96849.59;4936134;29;20059;-67
2022/07/05 11:35:52;;;;;;;5.97;5.50;;;;;;;34.99;33.31;96860.38;4933302;29;20508;-71
2022/07/05 11:38:19;;;;;;;7.35;6.03;;;;;;;35.50;32.38;96836.28;4942448;29;20058;-71
2022/07/05 11:40:53;;;;;;;9.65;6.60;;;;;;;35.96;31.40;96850.38;4934168;29;20055;-69
2022/07/05 11:43:30;;;;;;;6.05;5.43;;;;;;;35.48;31.87;96740.91;4935004;29;20055;-70
2022/07/05 11:45:58;;;;;;;10.40;6.20;;;;;;;36.67;30.97;96865.06;4935914;29;20510;-70
2022/07/05 11:48:29;;;;;;;6.97;6.30;;;;;;;36.40;30.51;96763.16;4941385;29;20055;-71
2022/07/05 11:50:56;;;;;;;6.00;5.50;;;;;;;37.10;30.16;96847.56;4936220;29;20063;-72
2022/07/05 11:53:29;;;;;;;7.03;6.43;;;;;;;36.96;30.20;96845.97;4935940;29;20145;-74
2022/07/05 11:56:16;;;;;;;6.35;5.78;;;;;;;36.22;30.39;96758.19;4938305;29;20051;-71
2022/07/05 11:58:43;;;;;;;6.57;5.72;;;;;;;36.82;30.17;96795.28;4928099;29;20130;-70
2022/07/05 12:01:11;;;;;;;7.13;6.47;;;;;;;36.97;29.83;96804.19;4934853;29;20075;-77
2022/07/05 12:03:39;;;;;;;6.97;5.30;;;;;;;37.51;29.24;96842.06;4941910;29;20584;-75
2022/07/05 12:06:13;;;;;;;10.10;7.03;;;;;;;36.55;31.53;96836.94;4938215;29;20118;-75
2022/07/05 12:08:40;;;;;;;9.07;6.47;;;;;;;35.59;30.86;96686.00;4927725;29;20159;-73
2022/07/05 12:13:57;;;;;;;8.70;5.38;;;;;;;36.17;31.42;96839.84;4935031;29;20059;-75
2022/07/05 12:16:25;;;;;;;10.25;6.28;;;;;;;36.02;31.29;96825.13;4935164;29;20059;-75
2022/07/05 12:19:00;;;;;;;7.55;6.72;;;;;;;35.75;31.90;96834.91;4939094;29;20103;-77
2022/07/05 12:21:27;;;;;;;8.32;5.88;;;;;;;35.98;32.20;96830.41;4928950;29;20434;-70
2022/07/05 12:23:55;;;;;;;7.40;5.85;;;;;;;36.47;31.29;96831.78;4918141;29;20075;-76
2022/07/05 12:26:22;;;;;;;8.38;5.93;;;;;;;36.62;30.66;96824.72;4939582;29;20059;-70
2022/07/05 12:28:50;;;;;;;9.90;5.88;;;;;;;36.72;30.90;96788.34;4926023;29;20096;-71
2022/07/05 12:31:23;;;;;;;6.45;5.85;;;;;;;37.59;30.18;96826.34;4927839;29;20507;-74
2022/07/05 12:33:51;;;;;;;8.73;6.32;;;;;;;38.46;28.58;96790.22;4933246;29;20099;-75
2022/07/05 12:36:27;;;;;;;9.48;5.50;;;;;;;39.58;27.37;96814.97;4932974;29;20059;-75
2022/07/05 12:39:00;;;;;;;7.13;5.53;;;;;;;40.91;26.00;96824.00;4945188;29;20063;-73
2022/07/05 12:41:28;;;;;;;8.73;6.10;;;;;;;41.87;25.27;96807.03;4941358;29;20070;-70
2022/07/05 12:43:58;;;;;;;6.85;5.28;;;;;;;42.94;23.88;96810.97;4920788;29;20082;-68
2022/07/05 12:46:38;;;;;;;6.18;5.53;;;;;;;41.88;24.38;96808.59;4944184;29;20550;-75
2022/07/05 12:49:10;;;;;;;9.15;5.65;;;;;;;42.05;24.90;96816.72;4935416;29;20071;-69
2022/07/05 12:51:40;;;;;;;8.30;5.70;;;;;;;43.32;23.67;96796.84;4931532;29;20150;-71
2022/07/05 13:00:05;;;;;;;8.50;5.40;;;;;;;43.20;22.72;96741.16;4930488;29;20158;-73
2022/07/05 13:02:44;;;;;;;5.82;5.32;;;;;;;43.60;23.23;96795.63;4938661;29;20566;-71
2022/07/05 13:05:24;;;;;;;6.07;5.47;;;;;;;42.91;23.82;96789.63;4940039;28;20063;-70
2022/07/05 13:07:57;;;;;;;6.88;5.40;;;;;;;43.12;24.07;96780.53;4922930;29;20051;-66
2022/07/05 13:10:36;;;;;;;7.60;5.60;;;;;;;43.03;23.29;96789.91;4926891;29;20380;-72
2022/07/05 13:13:07;;;;;;;7.53;5.57;;;;;;;41.06;25.17;96783.28;4931095;29;20474;-74
2022/07/05 13:15:37;;;;;;;6.82;6.22;;;;;;;39.94;26.81;96737.41;4944655;29;20510;-73
2022/07/05 13:18:04;;;;;;;8.38;5.82;;;;;;;40.14;26.39;96782.91;4929292;29;20087;-71
2022/07/05 13:20:31;;;;;;;7.45;5.93;;;;;;;40.04;27.02;96770.34;4939540;29;20055;-71
2022/07/05 13:22:59;;;;;;;6.00;5.40;;;;;;;40.00;26.79;96784.44;4930997;29;20052;-71
2022/07/05 13:25:32;;;;;;;9.63;5.80;;;;;;;39.47;27.56;96774.69;4943846;29;20155;-77
2022/07/05 13:27:59;;;;;;;6.10;5.60;;;;;;;39.28;27.86;96782.84;4930805;29;20066;-73
2022/07/05 13:30:26;;;;;;;7.40;6.70;;;;;;;38.73;28.46;96777.19;4913114;29;20071;-70
2022/07/05 13:32:53;;;;;;;6.93;6.40;;;;;;;38.39;29.13;96782.25;4949758;29;20119;-70
2022/07/05 13:35:20;;;;;;;8.20;5.72;;;;;;;38.06;28.79;96788.81;4932126;29;20070;-74
2022/07/05 13:37:47;;;;;;;8.45;6.72;;;;;;;37.36;29.89;96772.44;4950022;29;20063;-69
2022/07/05 13:40:15;;;;;;;7.18;6.57;;;;;;;37.17;29.44;96772.53;4949432;29;20142;-68
2022/07/05 13:42:42;;;;;;;6.32;5.82;;;;;;;36.89;30.06;96780.97;4949240;29;20055;-70
2022/07/05 13:45:09;;;;;;;11.30;6.85;;;;;;;36.47;31.16;96762.50;4948726;29;20581;-69
2022/07/05 13:47:36;;;;;;;7.00;6.18;;;;;;;36.30;31.55;96776.44;4948433;29;20090;-67
2022/07/05 13:52:49;;;;;;;7.30;6.38;;;;;;;35.59;31.99;96768.78;4947498;29;20098;-68
2022/07/05 13:55:16;;;;;;;10.70;6.28;;;;;;;35.56;32.60;96770.69;4947184;29;20099;-67
2022/07/05 13:57:44;;;;;;;6.47;5.80;;;;;;;35.09;32.89;96755.00;4947539;29;20062;-67
2022/07/05 14:00:12;;;;;;;6.57;5.97;;;;;;;35.17;32.73;96773.25;4947296;29;20066;-67
2022/07/05 14:02:39;;;;;;;8.40;6.28;;;;;;;35.03;33.28;96774.47;4947832;29;20079;-67
2022/07/05 14:05:06;;;;;;;9.88;6.45;;;;;;;35.34;32.76;96770.16;4948463;29;20062;-67
2022/07/05 14:07:34;;;;;;;6.90;6.10;;;;;;;35.23;32.99;96764.53;4947762;29;20914;-68
2022/07/05 14:10:01;;;;;;;7.82;5.70;;;;;;;35.16;33.32;96803.34;4949181;29;20063;-67
2022/07/05 14:12:28;;;;;;;6.70;6.20;;;;;;;35.06;33.03;96761.84;4949052;29;20058;-67
2022/07/05 14:14:55;;;;;;;11.07;6.15;;;;;;;34.76;32.79;96761.88;4948504;29;20594;-68
2022/07/05 14:17:22;;;;;;;6.40;5.82;;;;;;;34.72;32.95;96769.25;4947948;28;20067;-68
2022/07/05 14:20:02;;;;;;;11.20;6.15;;;;;;;35.08;32.55;96759.19;4948984;29;20059;-67
2022/07/05 14:22:55;;;;;;;6.70;6.10;;;;;;;35.93;31.63;96759.16;4946136;29;20514;-70
2022/07/05 14:25:47;;;;;;;7.50;6.15;;;;;;;36.72;30.56;96748.69;4944866;29;20054;-70
2022/07/05 14:28:17;;;;;;;7.60;6.80;;;;;;;38.50;28.58;96750.13;4945793;29;20055;-70
2022/07/05 14:30:57;;;;;;;8.13;6.00;;;;;;;38.09;28.91;96752.97;4946105;29;20055;-69
2022/07/05 14:36:59;;;;;;;10.15;5.93;;;;;;;35.80;31.26;96761.97;4926863;29;20059;-68
2022/07/05 14:39:45;;;;;;;6.43;5.88;;;;;;;35.56;31.27;96747.63;4945787;29;20059;-67
2022/07/05 14:46:04;;;;;;;6.93;5.85;;;;;;;35.29;32.26;96751.59;4899744;29;20051;-70
2022/07/05 14:48:33;;;;;;;7.20;6.03;;;;;;;35.56;31.88;96752.59;4907180;29;20096;-69
2022/07/05 14:51:00;;;;;;;8.13;6.05;;;;;;;36.84;30.63;96743.50;4907441;29;20064;-69
2022/07/05 14:53:36;;;;;;;8.82;6.50;;;;;;;37.04;30.14;96748.66;4921184;29;20059;-69
2022/07/05 14:56:44;;;;;;;6.82;6.22;;;;;;;36.56;32.04;96751.88;4942011;29;20511;-69
2022/07/05 14:59:43;;;;;;;6.68;6.03;;;;;;;37.63;31.40;96739.25;4947663;29;20054;-69
2022/07/05 16:31:03;;;;;;;;;;;;;;;;;;;;;
2022/07/05 16:37:57;;;;;;;8.18;5.60;;;;;;;33.16;35.04;96748.56;4872577;29;20442;-68
2022/07/05 16:44:45;;;;;;;6.78;5.95;;;;;;;32.57;35.21;96742.44;4941241;29;20122;-68
2022/07/05 16:48:22;;;;;;;6.60;6.10;;;;;;;32.08;36.36;96751.84;4905311;29;20067;-69
2022/07/05 17:25:54;;;;;;;9.45;6.20;;;;;;;31.28;39.07;96764.13;4940271;29;20626;-69
2022/07/05 20:50:06;;;;;;;7.65;5.70;;;;;;;22.57;69.73;96899.47;4925375;29;20065;-68
2022/07/05 20:52:33;;;;;;;7.47;5.43;;;;;;;22.56;70.14;96903.53;4927613;29;20066;-68
2022/07/05 20:55:00;;;;;;;7.50;4.95;;;;;;;22.36;69.74;96873.47;4927540;29;20063;-69
2022/07/05 20:57:30;;;;;;;5.80;5.20;;;;;;;22.55;70.00;96907.59;4928327;29;20070;-69
2022/07/05 20:59:57;;;;;;;6.63;5.32;;;;;;;22.44;70.22;96925.66;4927564;29;20078;-68
2022/07/05 21:02:24;;;;;;;9.68;5.80;;;;;;;22.37;70.45;96896.84;4927466;29;20071;-69
2022/07/05 21:04:51;;;;;;;11.15;6.05;;;;;;;22.42;70.20;96918.84;4927087;29;20051;-67
2022/07/05 21:07:18;;;;;;;8.55;6.00;;;;;;;21.97;71.11;96879.53;4927182;29;20535;-68
2022/07/05 21:09:45;;;;;;;7.65;6.20;;;;;;;21.28;70.78;96770.44;4927745;29;20657;-67
2022/07/05 21:12:14;;;;;;;9.60;5.65;;;;;;;22.15;71.62;96929.78;4925935;29;20142;-68
2022/07/05 21:14:41;;;;;;;10.55;6.20;;;;;;;22.09;71.62;96925.94;4927486;29;20056;-68
2022/07/05 21:17:08;;;;;;;7.20;5.72;;;;;;;21.81;72.01;96876.81;4910498;29;20166;-67
2022/07/05 21:19:35;;;;;;;8.40;6.07;;;;;;;21.06;71.39;96785.56;4927598;29;20056;-68
2022/07/05 21:22:04;;;;;;;11.02;5.95;;;;;;;21.71;71.51;96925.81;4927308;29;20059;-67
2022/07/05 21:24:33;;;;;;;10.23;5.72;;;;;;;21.13;70.97;96836.88;4927534;29;20431;-69
2022/07/05 21:27:00;;;;;;;10.30;5.50;;;;;;;21.25;70.80;96867.13;4913554;29;20149;-67
2022/07/05 21:29:27;;;;;;;10.57;5.28;;;;;;;21.53;71.10;96922.69;4930944;29;20541;-68
2022/07/05 21:31:54;;;;;;;11.18;4.80;;;;;;;21.10;71.34;96865.94;4929270;29;20507;-69
2022/07/05 21:34:20;;;;;;;8.90;5.00;;;;;;;21.48;71.39;96914.00;4929705;29;20435;-67
2022/07/05 21:36:47;;;;;;;8.93;5.30;;;;;;;19.09;72.21;96600.16;4930775;29;20059;-68
2022/07/05 21:39:14;;;;;;;8.73;4.78;;;;;;;20.96;72.88;96895.25;4930828;29;20442;-68
2022/07/05 21:41:41;;;;;;;10.38;5.53;;;;;;;20.83;71.88;96863.38;4930775;29;20071;-67
2022/07/05 21:44:07;;;;;;;9.20;4.72;;;;;;;20.55;71.40;96805.00;4930723;29;20545;-68
2022/07/05 21:46:34;;;;;;;9.05;5.15;;;;;;;21.27;71.31;96909.75;4929427;29;20055;-67
2022/07/05 21:49:02;;;;;;;6.45;4.32;;;;;;;21.02;71.79;96908.81;4930506;29;20066;-67
2022/07/05 21:51:30;;;;;;;6.13;4.55;;;;;;;20.69;71.67;96829.19;4930378;29;20586;-67
2022/07/05 21:53:57;;;;;;;8.30;5.30;;;;;;;21.20;72.21;96909.91;4930922;29;20060;-69
2022/07/05 21:56:24;;;;;;;7.30;4.97;;;;;;;20.71;73.30;96877.38;4930805;29;20558;-68
2022/07/05 22:04:24;;;;;;;6.38;5.18;;;;;;;20.59;75.20;96903.44;4920298;29;20067;-68
2022/07/05 22:06:52;;;;;;;7.43;5.15;;;;;;;20.44;76.13;96879.66;4911361;29;20127;-67
2022/07/05 22:09:19;;;;;;;10.00;5.38;;;;;;;19.74;76.85;96785.72;4911323;29;20499;-67
2022/07/05 22:11:46;;;;;;;9.15;5.07;;;;;;;19.91;76.75;96807.00;4911050;29;20360;-67
2022/07/05 22:14:14;;;;;;;8.95;4.80;;;;;;;19.52;77.53;96779.78;4911057;29;20543;-67
2022/07/05 22:16:40;;;;;;;9.95;5.85;;;;;;;20.43;77.16;96906.25;4911152;29;20527;-67
2022/07/05 22:19:07;;;;;;;6.05;4.32;;;;;;;20.54;76.28;96901.13;4910877;29;20056;-67
2022/07/05 22:21:34;;;;;;;9.55;4.82;;;;;;;20.54;76.16;96918.03;4911235;29;20440;-68
2022/07/05 22:24:01;;;;;;;6.47;4.80;;;;;;;20.57;75.46;96906.69;4911214;29;20056;-68
2022/07/05 22:26:28;;;;;;;7.55;4.35;;;;;;;20.28;75.19;96871.25;4911133;29;20246;-67
2022/07/05 22:28:59;;;;;;;7.40;4.72;;;;;;;20.38;75.33;96903.94;4911187;29;20163;-67
2022/07/05 22:31:26;;;;;;;7.05;4.07;;;;;;;20.23;75.94;96902.69;4910503;29;20064;-68
2022/07/05 22:34:01;;;;;;;7.20;4.20;;;;;;;20.00;76.03;96866.22;4910766;29;21401;-67
2022/07/05 22:36:38;;;;;;;8.55;4.78;;;;;;;19.83;77.20;96850.53;4893683;29;20063;-68
